createdAt,value
2019-01-21T00:00:56.314Z,1022.71
2019-01-21T00:01:55.940Z,1022.72
2019-01-21T00:02:56.137Z,1022.71
2019-01-21T00:04:00.569Z,1022.73
2019-01-21T00:04:56.073Z,1022.73
2019-01-21T00:05:57.942Z,1022.73
2019-01-21T00:06:55.861Z,1022.78
2019-01-21T00:07:56.245Z,1022.77
2019-01-21T00:08:56.253Z,1022.78
2019-01-21T00:09:55.782Z,1022.74
2019-01-21T00:10:56.422Z,1022.76
2019-01-21T00:11:56.425Z,1022.79
2019-01-21T00:12:56.489Z,1022.73
2019-01-21T00:13:55.958Z,1022.77
2019-01-21T00:14:56.267Z,1022.79
2019-01-21T00:15:56.289Z,1022.83
2019-01-21T00:16:56.034Z,1022.8
2019-01-21T00:17:56.116Z,1022.82
2019-01-21T00:18:55.931Z,1022.78
2019-01-21T00:19:56.068Z,1022.82
2019-01-21T00:20:56.026Z,1022.83
2019-01-21T00:21:56.274Z,1022.79
2019-01-21T00:22:55.918Z,1022.81
2019-01-21T00:23:56.410Z,1022.82
2019-01-21T00:24:56.392Z,1022.84
2019-01-21T00:25:55.999Z,1022.86
2019-01-21T00:26:56.426Z,1022.85
2019-01-21T00:27:56.407Z,1022.85
2019-01-21T00:28:56.237Z,1022.83
2019-01-21T00:29:56.211Z,1022.84
2019-01-21T00:30:55.889Z,1022.86
2019-01-21T00:31:55.856Z,1022.83
2019-01-21T00:32:56.346Z,1022.85
2019-01-21T00:33:56.363Z,1022.84
2019-01-21T00:34:56.233Z,1022.88
2019-01-21T00:35:57.838Z,1022.86
2019-01-21T00:37:03.863Z,1022.84
2019-01-21T00:37:56.075Z,1022.86
2019-01-21T00:38:55.895Z,1022.83
2019-01-21T00:39:56.184Z,1022.86
2019-01-21T00:40:57.189Z,1022.88
2019-01-21T00:41:55.874Z,1022.85
2019-01-21T00:42:56.816Z,1022.87
2019-01-21T00:43:56.277Z,1022.86
2019-01-21T00:44:55.918Z,1022.87
2019-01-21T00:45:57.257Z,1022.87
2019-01-21T00:46:56.085Z,1022.86
2019-01-21T00:47:55.830Z,1022.85
2019-01-21T00:48:56.452Z,1022.89
2019-01-21T00:49:56.053Z,1022.84
2019-01-21T00:50:55.786Z,1022.88
2019-01-21T00:51:56.593Z,1022.86
2019-01-21T00:52:55.920Z,1022.91
2019-01-21T00:53:55.721Z,1022.91
2019-01-21T00:54:56.169Z,1022.9
2019-01-21T00:55:56.108Z,1022.86
2019-01-21T00:56:55.876Z,1022.89
2019-01-21T00:57:55.958Z,1022.89
2019-01-21T00:58:56.063Z,1022.9
2019-01-21T00:59:55.804Z,1022.89
2019-01-21T01:00:56.134Z,1022.92
2019-01-21T01:01:56.031Z,1022.91
2019-01-21T01:02:55.916Z,1022.9
2019-01-21T01:03:55.744Z,1022.96
2019-01-21T01:04:55.915Z,1022.95
2019-01-21T01:05:56.072Z,1022.96
2019-01-21T01:06:55.892Z,1022.98
2019-01-21T01:07:56.008Z,1022.98
2019-01-21T01:08:55.702Z,1022.98
2019-01-21T01:09:56.175Z,1022.95
2019-01-21T01:10:56.331Z,1023.02
2019-01-21T01:11:56.009Z,1022.99
2019-01-21T01:12:55.949Z,1023.04
2019-01-21T01:13:55.822Z,1023.04
2019-01-21T01:14:56.257Z,1023.05
2019-01-21T01:15:55.997Z,1023.08
2019-01-21T01:16:56.070Z,1023.1
2019-01-21T01:17:55.922Z,1023.09
2019-01-21T01:18:55.712Z,1023.04
2019-01-21T01:19:56.147Z,1023.06
2019-01-21T01:20:56.346Z,1023.05
2019-01-21T01:21:55.808Z,1023.05
2019-01-21T01:22:55.819Z,1023.06
2019-01-21T01:23:56.223Z,1023.06
2019-01-21T01:24:55.797Z,1023.1
2019-01-21T01:25:55.850Z,1023.11
2019-01-21T01:26:56.033Z,1023.09
2019-01-21T01:27:56.055Z,1023.12
2019-01-21T01:28:55.976Z,1023.12
2019-01-21T01:29:56.356Z,1023.13
2019-01-21T01:30:56.047Z,1023.16
2019-01-21T01:31:56.154Z,1023.16
2019-01-21T01:32:56.023Z,1023.19
2019-01-21T01:33:57.691Z,1023.17
2019-01-21T01:34:56.291Z,1023.17
2019-01-21T01:35:56.313Z,1023.2
2019-01-21T01:36:56.529Z,1023.22
2019-01-21T01:37:56.087Z,1023.22
2019-01-21T01:38:56.648Z,1023.25
2019-01-21T01:39:56.052Z,1023.21
2019-01-21T01:40:55.940Z,1023.22
2019-01-21T01:41:57.329Z,1023.17
2019-01-21T01:42:56.024Z,1023.17
2019-01-21T01:43:55.949Z,1023.24
2019-01-21T01:44:56.115Z,1023.19
2019-01-21T01:45:55.924Z,1023.24
2019-01-21T01:46:55.945Z,1023.22
2019-01-21T01:47:56.394Z,1023.24
2019-01-21T01:48:56.838Z,1023.25
2019-01-21T01:49:56.978Z,1023.24
2019-01-21T01:50:57.863Z,1023.27
2019-01-21T01:51:55.739Z,1023.29
2019-01-21T01:52:55.856Z,1023.24
2019-01-21T01:53:56.078Z,1023.29
2019-01-21T01:54:56.034Z,1023.27
2019-01-21T01:55:56.228Z,1023.28
2019-01-21T01:56:56.041Z,1023.28
2019-01-21T01:57:55.976Z,1023.27
2019-01-21T01:58:56.735Z,1023.23
2019-01-21T01:59:56.446Z,1023.22
2019-01-21T02:00:55.911Z,1023.21
2019-01-21T02:01:56.201Z,1023.21
2019-01-21T02:02:57.866Z,1023.28
2019-01-21T02:03:57.286Z,1023.24
2019-01-21T02:04:56.162Z,1023.25
2019-01-21T02:05:56.044Z,1023.25
2019-01-21T02:06:56.385Z,1023.29
2019-01-21T02:07:56.413Z,1023.25
2019-01-21T02:08:55.895Z,1023.27
2019-01-21T02:09:55.855Z,1023.28
2019-01-21T02:10:57.676Z,1023.29
2019-01-21T02:11:55.882Z,1023.32
2019-01-21T02:12:56.169Z,1023.31
2019-01-21T02:13:55.995Z,1023.28
2019-01-21T02:14:56.053Z,1023.31
2019-01-21T02:15:56.447Z,1023.32
2019-01-21T02:16:55.834Z,1023.3
2019-01-21T02:17:56.301Z,1023.3
2019-01-21T02:18:56.039Z,1023.3
2019-01-21T02:19:55.896Z,1023.29
2019-01-21T02:20:55.896Z,1023.32
2019-01-21T02:21:56.319Z,1023.3
2019-01-21T02:22:55.861Z,1023.27
2019-01-21T02:23:56.713Z,1023.34
2019-01-21T02:24:56.326Z,1023.32
2019-01-21T02:25:55.863Z,1023.31
2019-01-21T02:26:55.941Z,1023.33
2019-01-21T02:27:56.246Z,1023.33
2019-01-21T02:28:56.081Z,1023.33
2019-01-21T02:29:55.811Z,1023.37
2019-01-21T02:30:56.284Z,1023.33
2019-01-21T02:31:56.085Z,1023.36
2019-01-21T02:32:56.778Z,1023.35
2019-01-21T02:33:56.197Z,1023.33
2019-01-21T02:34:55.783Z,1023.32
2019-01-21T02:35:55.785Z,1023.32
2019-01-21T02:36:55.888Z,1023.32
2019-01-21T02:37:55.845Z,1023.34
2019-01-21T02:38:55.928Z,1023.32
2019-01-21T02:39:55.921Z,1023.29
2019-01-21T02:40:55.812Z,1023.32
2019-01-21T02:41:56.177Z,1023.31
2019-01-21T02:43:00.027Z,1023.29
2019-01-21T02:43:55.901Z,1023.3
2019-01-21T02:44:55.866Z,1023.25
2019-01-21T02:45:55.925Z,1023.27
2019-01-21T02:46:56.040Z,1023.29
2019-01-21T02:48:00.535Z,1023.25
2019-01-21T02:48:56.043Z,1023.26
2019-01-21T02:49:57.103Z,1023.2
2019-01-21T02:50:55.753Z,1023.22
2019-01-21T02:51:55.821Z,1023.23
2019-01-21T02:52:56.234Z,1023.21
2019-01-21T02:53:56.103Z,1023.21
2019-01-21T02:54:55.830Z,1023.2
2019-01-21T02:55:56.225Z,1023.2
2019-01-21T02:56:56.139Z,1023.25
2019-01-21T02:57:55.856Z,1023.24
2019-01-21T02:58:56.460Z,1023.21
2019-01-21T02:59:56.039Z,1023.2
2019-01-21T03:00:56.101Z,1023.21
2019-01-21T03:01:56.280Z,1023.19
2019-01-21T03:02:55.962Z,1023.16
2019-01-21T03:03:55.865Z,1023.18
2019-01-21T03:04:57.260Z,1023.17
2019-01-21T03:05:56.767Z,1023.2
2019-01-21T03:06:57.127Z,1023.18
2019-01-21T03:07:56.193Z,1023.18
2019-01-21T03:08:56.869Z,1023.17
2019-01-21T03:09:55.778Z,1023.15
2019-01-21T03:10:55.885Z,1023.11
2019-01-21T03:11:56.036Z,1023.17
2019-01-21T03:12:55.967Z,1023.13
2019-01-21T03:13:55.786Z,1023.14
2019-01-21T03:14:56.387Z,1023.13
2019-01-21T03:15:58.212Z,1023.14
2019-01-21T03:16:55.777Z,1023.11
2019-01-21T03:17:55.935Z,1023.16
2019-01-21T03:18:56.016Z,1023.13
2019-01-21T03:19:57.023Z,1023.12
2019-01-21T03:20:56.234Z,1023.13
2019-01-21T03:21:56.226Z,1023.13
2019-01-21T03:22:55.883Z,1023.08
2019-01-21T03:23:56.528Z,1023.14
2019-01-21T03:24:55.842Z,1023.09
2019-01-21T03:25:55.908Z,1023.1
2019-01-21T03:26:56.051Z,1023.08
2019-01-21T03:27:57.062Z,1023.12
2019-01-21T03:28:55.897Z,1023.08
2019-01-21T03:29:55.966Z,1023.05
2019-01-21T03:30:56.179Z,1023.07
2019-01-21T03:31:56.244Z,1023.05
2019-01-21T03:32:56.289Z,1023.09
2019-01-21T03:33:56.230Z,1023.07
2019-01-21T03:34:56.062Z,1023.11
2019-01-21T03:35:55.876Z,1023.11
2019-01-21T03:36:56.069Z,1023.13
2019-01-21T03:37:55.711Z,1023.12
2019-01-21T03:38:55.860Z,1023.15
2019-01-21T03:39:56.654Z,1023.16
2019-01-21T03:40:56.860Z,1023.15
2019-01-21T03:41:56.086Z,1023.16
2019-01-21T03:42:56.032Z,1023.17
2019-01-21T03:43:55.921Z,1023.18
2019-01-21T03:44:56.393Z,1023.19
2019-01-21T03:45:55.898Z,1023.2
2019-01-21T03:46:56.187Z,1023.22
2019-01-21T03:47:55.948Z,1023.22
2019-01-21T03:48:56.748Z,1023.22
2019-01-21T03:49:55.869Z,1023.24
2019-01-21T03:50:56.033Z,1023.22
2019-01-21T03:51:55.860Z,1023.24
2019-01-21T03:52:55.804Z,1023.21
2019-01-21T03:53:55.972Z,1023.24
2019-01-21T03:54:56.270Z,1023.21
2019-01-21T03:55:57.416Z,1023.24
2019-01-21T03:56:56.375Z,1023.23
2019-01-21T03:57:57.493Z,1023.2
2019-01-21T03:58:56.507Z,1023.26
2019-01-21T03:59:56.108Z,1023.22
2019-01-21T04:00:56.082Z,1023.21
2019-01-21T04:01:55.971Z,1023.22
2019-01-21T04:02:55.838Z,1023.26
2019-01-21T04:03:55.742Z,1023.24
2019-01-21T04:04:56.053Z,1023.25
2019-01-21T04:05:56.110Z,1023.22
2019-01-21T04:06:56.638Z,1023.22
2019-01-21T04:07:56.979Z,1023.19
2019-01-21T04:08:55.810Z,1023.19
2019-01-21T04:09:55.933Z,1023.14
2019-01-21T04:10:56.040Z,1023.15
2019-01-21T04:11:56.090Z,1023.16
2019-01-21T04:12:55.937Z,1023.13
2019-01-21T04:13:56.017Z,1023.13
2019-01-21T04:14:56.897Z,1023.12
2019-01-21T04:15:55.938Z,1023.13
2019-01-21T04:16:55.955Z,1023.14
2019-01-21T04:17:55.825Z,1023.14
2019-01-21T04:18:55.890Z,1023.12
2019-01-21T04:19:55.960Z,1023.16
2019-01-21T04:20:55.867Z,1023.15
2019-01-21T04:21:55.960Z,1023.17
2019-01-21T04:22:55.904Z,1023.15
2019-01-21T04:23:56.005Z,1023.15
2019-01-21T04:24:56.189Z,1023.13
2019-01-21T04:25:55.936Z,1023.16
2019-01-21T04:26:55.896Z,1023.17
2019-01-21T04:27:57.724Z,1023.17
2019-01-21T04:28:55.909Z,1023.18
2019-01-21T04:29:56.164Z,1023.2
2019-01-21T04:30:56.007Z,1023.2
2019-01-21T04:31:56.611Z,1023.21
2019-01-21T04:32:56.004Z,1023.21
2019-01-21T04:33:56.173Z,1023.23
2019-01-21T04:34:55.916Z,1023.26
2019-01-21T04:35:56.354Z,1023.22
2019-01-21T04:36:55.684Z,1023.24
2019-01-21T04:37:56.282Z,1023.27
2019-01-21T04:38:56.810Z,1023.3
2019-01-21T04:39:55.882Z,1023.27
2019-01-21T04:40:56.880Z,1023.31
2019-01-21T04:41:56.066Z,1023.26
2019-01-21T04:42:55.806Z,1023.32
2019-01-21T04:43:56.065Z,1023.3
2019-01-21T04:44:56.739Z,1023.33
2019-01-21T04:45:55.826Z,1023.33
2019-01-21T04:46:56.236Z,1023.39
2019-01-21T04:47:56.881Z,1023.36
2019-01-21T04:48:56.736Z,1023.35
2019-01-21T04:49:56.243Z,1023.4
2019-01-21T04:50:55.982Z,1023.37
2019-01-21T04:51:57.611Z,1023.37
2019-01-21T04:52:56.017Z,1023.38
2019-01-21T04:53:56.187Z,1023.36
2019-01-21T04:54:55.661Z,1023.34
2019-01-21T04:55:57.286Z,1023.36
2019-01-21T04:56:56.895Z,1023.35
2019-01-21T04:57:55.753Z,1023.35
2019-01-21T04:58:55.809Z,1023.35
2019-01-21T04:59:55.958Z,1023.33
2019-01-21T05:00:55.661Z,1023.33
2019-01-21T05:01:55.849Z,1023.38
2019-01-21T05:02:55.908Z,1023.35
2019-01-21T05:03:56.184Z,1023.37
2019-01-21T05:04:55.689Z,1023.34
2019-01-21T05:05:56.654Z,1023.35
2019-01-21T05:06:55.753Z,1023.38
2019-01-21T05:07:55.882Z,1023.39
2019-01-21T05:08:56.065Z,1023.44
2019-01-21T05:09:55.995Z,1023.39
2019-01-21T05:10:56.360Z,1023.42
2019-01-21T05:11:55.758Z,1023.4
2019-01-21T05:12:56.734Z,1023.4
2019-01-21T05:13:56.407Z,1023.4
2019-01-21T05:14:55.897Z,1023.4
2019-01-21T05:15:56.162Z,1023.42
2019-01-21T05:16:56.037Z,1023.44
2019-01-21T05:17:55.790Z,1023.41
2019-01-21T05:18:55.980Z,1023.44
2019-01-21T05:19:56.345Z,1023.44
2019-01-21T05:20:55.797Z,1023.49
2019-01-21T05:21:56.255Z,1023.47
2019-01-21T05:22:55.975Z,1023.47
2019-01-21T05:23:55.886Z,1023.44
2019-01-21T05:24:55.926Z,1023.48
2019-01-21T05:25:56.014Z,1023.44
2019-01-21T05:26:56.038Z,1023.44
2019-01-21T05:27:55.929Z,1023.44
2019-01-21T05:28:55.722Z,1023.44
2019-01-21T05:29:56.141Z,1023.45
2019-01-21T05:30:57.141Z,1023.46
2019-01-21T05:31:56.365Z,1023.46
2019-01-21T05:32:56.079Z,1023.49
2019-01-21T05:33:55.988Z,1023.52
2019-01-21T05:34:56.183Z,1023.49
2019-01-21T05:35:56.153Z,1023.49
2019-01-21T05:36:56.164Z,1023.48
2019-01-21T05:37:55.688Z,1023.47
2019-01-21T05:38:55.832Z,1023.46
2019-01-21T05:39:55.871Z,1023.47
2019-01-21T05:40:56.098Z,1023.47
2019-01-21T05:41:55.743Z,1023.45
2019-01-21T05:42:55.831Z,1023.44
2019-01-21T05:43:55.924Z,1023.47
2019-01-21T05:44:55.911Z,1023.47
2019-01-21T05:45:55.751Z,1023.49
2019-01-21T05:46:56.056Z,1023.52
2019-01-21T05:47:55.816Z,1023.54
2019-01-21T05:48:56.666Z,1023.55
2019-01-21T05:49:56.082Z,1023.55
2019-01-21T05:50:55.716Z,1023.59
2019-01-21T05:51:55.823Z,1023.58
2019-01-21T05:53:00.266Z,1023.58
2019-01-21T05:53:55.757Z,1023.58
2019-01-21T05:54:56.101Z,1023.62
2019-01-21T05:55:56.084Z,1023.64
2019-01-21T05:56:55.821Z,1023.63
2019-01-21T05:57:56.373Z,1023.64
2019-01-21T05:58:55.780Z,1023.63
2019-01-21T05:59:56.593Z,1023.64
2019-01-21T06:00:55.794Z,1023.63
2019-01-21T06:01:55.626Z,1023.68
2019-01-21T06:02:57.336Z,1023.65
2019-01-21T06:03:55.959Z,1023.68
2019-01-21T06:04:55.864Z,1023.67
2019-01-21T06:05:55.778Z,1023.66
2019-01-21T06:06:55.982Z,1023.66
2019-01-21T06:07:55.664Z,1023.7
2019-01-21T06:08:55.812Z,1023.66
2019-01-21T06:09:55.949Z,1023.65
2019-01-21T06:10:55.845Z,1023.65
2019-01-21T06:11:55.680Z,1023.69
2019-01-21T06:12:55.775Z,1023.67
2019-01-21T06:14:00.423Z,1023.7
2019-01-21T06:14:56.060Z,1023.69
2019-01-21T06:15:56.767Z,1023.66
2019-01-21T06:16:55.956Z,1023.66
2019-01-21T06:17:55.634Z,1023.69
2019-01-21T06:18:57.795Z,1023.7
2019-01-21T06:19:56.346Z,1023.68
2019-01-21T06:20:55.832Z,1023.72
2019-01-21T06:21:55.829Z,1023.73
2019-01-21T06:22:55.984Z,1023.74
2019-01-21T06:23:55.582Z,1023.74
2019-01-21T06:24:55.913Z,1023.81
2019-01-21T06:25:56.250Z,1023.8
2019-01-21T06:26:56.087Z,1023.78
2019-01-21T06:27:55.940Z,1023.8
2019-01-21T06:28:56.481Z,1023.79
2019-01-21T06:29:55.720Z,1023.79
2019-01-21T06:30:55.728Z,1023.82
2019-01-21T06:31:56.164Z,1023.83
2019-01-21T06:32:55.892Z,1023.86
2019-01-21T06:33:55.868Z,1023.82
2019-01-21T06:34:57.598Z,1023.84
2019-01-21T06:35:56.747Z,1023.84
2019-01-21T06:36:55.942Z,1023.85
2019-01-21T06:37:55.906Z,1023.84
2019-01-21T06:38:56.071Z,1023.86
2019-01-21T06:39:56.224Z,1023.87
2019-01-21T06:40:55.730Z,1023.88
2019-01-21T06:41:57.238Z,1023.91
2019-01-21T06:42:56.837Z,1023.92
2019-01-21T06:43:55.686Z,1023.9
2019-01-21T06:44:56.187Z,1023.92
2019-01-21T06:45:55.840Z,1023.95
2019-01-21T06:46:55.950Z,1023.94
2019-01-21T06:47:56.487Z,1023.96
2019-01-21T06:48:55.950Z,1023.94
2019-01-21T06:49:55.714Z,1023.95
2019-01-21T06:50:56.822Z,1024
2019-01-21T06:51:55.964Z,1023.97
2019-01-21T06:52:55.933Z,1023.98
2019-01-21T06:53:56.432Z,1023.99
2019-01-21T06:54:58.067Z,1024.05
2019-01-21T06:55:57.369Z,1024.05
2019-01-21T06:56:55.742Z,1024.08
2019-01-21T06:57:55.897Z,1024.11
2019-01-21T06:58:55.750Z,1024.08
2019-01-21T06:59:55.860Z,1024.08
2019-01-21T07:00:56.252Z,1024.09
2019-01-21T07:01:55.970Z,1024.08
2019-01-21T07:02:55.852Z,1024.11
2019-01-21T07:03:56.071Z,1024.12
2019-01-21T07:04:56.424Z,1024.13
2019-01-21T07:05:57.577Z,1024.11
2019-01-21T07:06:56.090Z,1024.1
2019-01-21T07:07:56.221Z,1024.12
2019-01-21T07:08:56.249Z,1024.15
2019-01-21T07:09:56.245Z,1024.11
2019-01-21T07:10:55.984Z,1024.12
2019-01-21T07:11:56.043Z,1024.09
2019-01-21T07:12:55.867Z,1024.11
2019-01-21T07:13:55.994Z,1024.13
2019-01-21T07:14:56.443Z,1024.11
2019-01-21T07:15:55.896Z,1024.14
2019-01-21T07:16:55.623Z,1024.19
2019-01-21T07:17:56.394Z,1024.2
2019-01-21T07:18:56.237Z,1024.19
2019-01-21T07:19:55.994Z,1024.25
2019-01-21T07:20:55.941Z,1024.23
2019-01-21T07:21:56.208Z,1024.25
2019-01-21T07:22:55.804Z,1024.25
2019-01-21T07:23:55.853Z,1024.25
2019-01-21T07:24:56.138Z,1024.28
2019-01-21T07:25:56.243Z,1024.24
2019-01-21T07:26:55.847Z,1024.25
2019-01-21T07:27:56.344Z,1024.28
2019-01-21T07:28:55.639Z,1024.27
2019-01-21T07:29:56.670Z,1024.24
2019-01-21T07:30:56.115Z,1024.25
2019-01-21T07:31:55.723Z,1024.23
2019-01-21T07:32:56.371Z,1024.25
2019-01-21T07:33:55.876Z,1024.27
2019-01-21T07:34:55.643Z,1024.25
2019-01-21T07:35:55.915Z,1024.25
2019-01-21T07:36:56.123Z,1024.27
2019-01-21T07:37:55.853Z,1024.26
2019-01-21T07:38:55.784Z,1024.32
2019-01-21T07:39:55.798Z,1024.26
2019-01-21T07:40:55.682Z,1024.27
2019-01-21T07:41:55.662Z,1024.29
2019-01-21T07:42:55.978Z,1024.26
2019-01-21T07:43:55.637Z,1024.22
2019-01-21T07:44:55.610Z,1024.29
2019-01-21T07:45:55.882Z,1024.29
2019-01-21T07:46:55.740Z,1024.28
2019-01-21T07:47:55.774Z,1024.29
2019-01-21T07:48:56.007Z,1024.29
2019-01-21T07:49:55.828Z,1024.23
2019-01-21T07:50:55.744Z,1024.27
2019-01-21T07:51:57.948Z,1024.28
2019-01-21T07:52:55.549Z,1024.26
2019-01-21T07:53:55.742Z,1024.26
2019-01-21T07:54:55.949Z,1024.22
2019-01-21T07:55:55.947Z,1024.24
2019-01-21T07:56:55.784Z,1024.25
2019-01-21T07:57:57.122Z,1024.22
2019-01-21T07:58:56.063Z,1024.24
2019-01-21T07:59:55.983Z,1024.25
2019-01-21T08:00:55.940Z,1024.2
2019-01-21T08:01:56.044Z,1024.22
2019-01-21T08:02:57.337Z,1024.24
2019-01-21T08:03:55.738Z,1024.24
2019-01-21T08:04:56.226Z,1024.21
2019-01-21T08:05:55.703Z,1024.2
2019-01-21T08:06:58.902Z,1024.18
2019-01-21T08:07:56.639Z,1024.2
2019-01-21T08:08:55.722Z,1024.22
2019-01-21T08:09:56.185Z,1024.17
2019-01-21T08:10:55.892Z,1024.22
2019-01-21T08:11:56.069Z,1024.25
2019-01-21T08:12:55.828Z,1024.2
2019-01-21T08:13:57.032Z,1024.2
2019-01-21T08:14:55.733Z,1024.25
2019-01-21T08:15:55.848Z,1024.24
2019-01-21T08:16:55.802Z,1024.19
2019-01-21T08:17:57.592Z,1024.25
2019-01-21T08:18:55.879Z,1024.26
2019-01-21T08:19:55.911Z,1024.25
2019-01-21T08:20:57.496Z,1024.25
2019-01-21T08:21:56.060Z,1024.26
2019-01-21T08:22:56.248Z,1024.29
2019-01-21T08:23:56.934Z,1024.28
2019-01-21T08:24:56.265Z,1024.28
2019-01-21T08:25:55.925Z,1024.31
2019-01-21T08:26:55.588Z,1024.27
2019-01-21T08:27:55.776Z,1024.31
2019-01-21T08:28:55.985Z,1024.29
2019-01-21T08:29:56.250Z,1024.31
2019-01-21T08:30:56.110Z,1024.33
2019-01-21T08:31:55.925Z,1024.35
2019-01-21T08:32:55.897Z,1024.36
2019-01-21T08:33:56.645Z,1024.34
2019-01-21T08:34:56.174Z,1024.34
2019-01-21T08:35:55.801Z,1024.34
2019-01-21T08:36:55.722Z,1024.33
2019-01-21T08:37:55.746Z,1024.32
2019-01-21T08:38:55.766Z,1024.35
2019-01-21T08:39:56.729Z,1024.39
2019-01-21T08:40:55.763Z,1024.41
2019-01-21T08:41:55.586Z,1024.42
2019-01-21T08:42:55.773Z,1024.41
2019-01-21T08:43:55.875Z,1024.44
2019-01-21T08:44:55.706Z,1024.44
2019-01-21T08:45:55.997Z,1024.43
2019-01-21T08:46:55.788Z,1024.45
2019-01-21T08:47:56.327Z,1024.45
2019-01-21T08:48:56.144Z,1024.44
2019-01-21T08:49:55.845Z,1024.44
2019-01-21T08:50:56.072Z,1024.45
2019-01-21T08:51:56.374Z,1024.46
2019-01-21T08:52:58.005Z,1024.45
2019-01-21T08:53:55.742Z,1024.49
2019-01-21T08:54:56.902Z,1024.48
2019-01-21T08:55:56.165Z,1024.47
2019-01-21T08:56:56.064Z,1024.46
2019-01-21T08:57:55.690Z,1024.45
2019-01-21T08:58:55.804Z,1024.45
2019-01-21T08:59:55.885Z,1024.45
2019-01-21T09:00:55.730Z,1024.49
2019-01-21T09:01:56.020Z,1024.51
2019-01-21T09:02:56.036Z,1024.5
2019-01-21T09:03:56.133Z,1024.54
2019-01-21T09:04:55.769Z,1024.46
2019-01-21T09:05:56.062Z,1024.52
2019-01-21T09:07:01.053Z,1024.46
2019-01-21T09:07:56.293Z,1024.5
2019-01-21T09:08:55.951Z,1024.49
2019-01-21T09:09:56.074Z,1024.46
2019-01-21T09:10:56.278Z,1024.5
2019-01-21T09:11:56.194Z,1024.48
2019-01-21T09:12:55.689Z,1024.5
2019-01-21T09:13:56.118Z,1024.54
2019-01-21T09:14:56.035Z,1024.56
2019-01-21T09:15:55.819Z,1024.54
2019-01-21T09:16:55.803Z,1024.51
2019-01-21T09:17:56.027Z,1024.54
2019-01-21T09:18:55.885Z,1024.53
2019-01-21T09:19:55.771Z,1024.55
2019-01-21T09:20:55.937Z,1024.57
2019-01-21T09:21:55.895Z,1024.54
2019-01-21T09:22:55.731Z,1024.56
2019-01-21T09:23:55.877Z,1024.55
2019-01-21T09:24:55.912Z,1024.57
2019-01-21T09:25:56.042Z,1024.6
2019-01-21T09:26:55.893Z,1024.6
2019-01-21T09:27:55.729Z,1024.62
2019-01-21T09:28:55.687Z,1024.63
2019-01-21T09:29:55.790Z,1024.63
2019-01-21T09:30:55.759Z,1024.65
2019-01-21T09:31:55.710Z,1024.67
2019-01-21T09:32:55.967Z,1024.65
2019-01-21T09:33:55.668Z,1024.7
2019-01-21T09:34:55.611Z,1024.69
2019-01-21T09:35:55.978Z,1024.72
2019-01-21T09:36:55.757Z,1024.73
2019-01-21T09:37:56.010Z,1024.73
2019-01-21T09:38:55.753Z,1024.69
2019-01-21T09:39:55.737Z,1024.68
2019-01-21T09:40:55.686Z,1024.69
2019-01-21T09:41:56.004Z,1024.68
2019-01-21T09:42:56.037Z,1024.69
2019-01-21T09:43:55.834Z,1024.68
2019-01-21T09:44:55.752Z,1024.68
2019-01-21T09:45:57.671Z,1024.71
2019-01-21T09:46:55.682Z,1024.71
2019-01-21T09:47:55.953Z,1024.73
2019-01-21T09:48:56.230Z,1024.73
2019-01-21T09:49:56.523Z,1024.73
2019-01-21T09:50:56.207Z,1024.72
2019-01-21T09:51:55.820Z,1024.76
2019-01-21T09:52:55.857Z,1024.71
2019-01-21T09:53:56.222Z,1024.73
2019-01-21T09:54:56.007Z,1024.74
2019-01-21T09:55:56.125Z,1024.72
2019-01-21T09:56:56.106Z,1024.73
2019-01-21T09:57:56.069Z,1024.72
2019-01-21T09:58:55.915Z,1024.73
2019-01-21T09:59:56.402Z,1024.69
2019-01-21T10:00:56.142Z,1024.71
2019-01-21T10:01:56.250Z,1024.68
2019-01-21T10:02:56.254Z,1024.69
2019-01-21T10:03:56.469Z,1024.71
2019-01-21T10:04:56.483Z,1024.66
2019-01-21T10:05:55.599Z,1024.66
2019-01-21T10:06:55.942Z,1024.68
2019-01-21T10:07:55.980Z,1024.63
2019-01-21T10:08:55.947Z,1024.67
2019-01-21T10:09:55.824Z,1024.7
2019-01-21T10:10:55.935Z,1024.67
2019-01-21T10:11:55.997Z,1024.69
2019-01-21T10:12:55.661Z,1024.65
2019-01-21T10:13:55.576Z,1024.67
2019-01-21T10:14:55.652Z,1024.64
2019-01-21T10:15:55.875Z,1024.69
2019-01-21T10:16:56.792Z,1024.69
2019-01-21T10:17:55.644Z,1024.65
2019-01-21T10:18:56.176Z,1024.65
2019-01-21T10:19:56.476Z,1024.64
2019-01-21T10:20:56.179Z,1024.65
2019-01-21T10:21:57.596Z,1024.67
2019-01-21T10:22:55.926Z,1024.65
2019-01-21T10:23:56.095Z,1024.6
2019-01-21T10:24:56.305Z,1024.61
2019-01-21T10:25:56.412Z,1024.62
2019-01-21T10:26:56.009Z,1024.61
2019-01-21T10:27:56.021Z,1024.58
2019-01-21T10:28:56.062Z,1024.6
2019-01-21T10:29:55.682Z,1024.58
2019-01-21T10:30:56.435Z,1024.57
2019-01-21T10:31:59.619Z,1024.6
2019-01-21T10:32:55.631Z,1024.57
2019-01-21T10:33:55.993Z,1024.6
2019-01-21T10:34:56.177Z,1024.57
2019-01-21T10:35:56.947Z,1024.58
2019-01-21T10:36:56.282Z,1024.56
2019-01-21T10:37:56.049Z,1024.55
2019-01-21T10:38:55.748Z,1024.53
2019-01-21T10:39:55.970Z,1024.53
2019-01-21T10:40:56.861Z,1024.5
2019-01-21T10:41:55.625Z,1024.49
2019-01-21T10:42:55.962Z,1024.5
2019-01-21T10:43:56.087Z,1024.53
2019-01-21T10:44:56.336Z,1024.54
2019-01-21T10:45:55.849Z,1024.5
2019-01-21T10:46:55.865Z,1024.52
2019-01-21T10:47:56.054Z,1024.5
2019-01-21T10:48:55.794Z,1024.49
2019-01-21T10:49:57.742Z,1024.48
2019-01-21T10:50:55.833Z,1024.45
2019-01-21T10:51:55.694Z,1024.45
2019-01-21T10:52:55.846Z,1024.43
2019-01-21T10:53:55.605Z,1024.42
2019-01-21T10:54:55.835Z,1024.37
2019-01-21T10:55:56.011Z,1024.39
2019-01-21T10:56:55.670Z,1024.34
2019-01-21T10:57:55.764Z,1024.35
2019-01-21T10:58:55.926Z,1024.33
2019-01-21T10:59:55.651Z,1024.34
2019-01-21T11:00:55.752Z,1024.32
2019-01-21T11:01:56.030Z,1024.31
2019-01-21T11:02:55.653Z,1024.32
2019-01-21T11:03:56.556Z,1024.31
2019-01-21T11:04:55.738Z,1024.3
2019-01-21T11:05:55.641Z,1024.35
2019-01-21T11:06:55.728Z,1024.34
2019-01-21T11:07:55.893Z,1024.35
2019-01-21T11:08:55.941Z,1024.32
2019-01-21T11:09:55.602Z,1024.33
2019-01-21T11:10:55.855Z,1024.35
2019-01-21T11:11:56.132Z,1024.31
2019-01-21T11:12:55.762Z,1024.31
2019-01-21T11:13:56.177Z,1024.31
2019-01-21T11:14:56.055Z,1024.33
2019-01-21T11:15:56.318Z,1024.27
2019-01-21T11:16:55.813Z,1024.27
2019-01-21T11:17:55.643Z,1024.24
2019-01-21T11:18:56.003Z,1024.23
2019-01-21T11:19:56.083Z,1024.22
2019-01-21T11:20:56.504Z,1024.24
2019-01-21T11:21:55.686Z,1024.23
2019-01-21T11:22:57.659Z,1024.24
2019-01-21T11:23:55.885Z,1024.29
2019-01-21T11:24:55.842Z,1024.24
2019-01-21T11:25:56.083Z,1024.25
2019-01-21T11:26:55.709Z,1024.26
2019-01-21T11:27:57.563Z,1024.25
2019-01-21T11:28:55.981Z,1024.25
2019-01-21T11:29:55.591Z,1024.27
2019-01-21T11:30:56.728Z,1024.23
2019-01-21T11:31:56.890Z,1024.18
2019-01-21T11:32:56.482Z,1024.15
2019-01-21T11:33:56.180Z,1024.13
2019-01-21T11:34:55.992Z,1024.1
2019-01-21T11:35:56.214Z,1024.11
2019-01-21T11:36:55.728Z,1024.1
2019-01-21T11:37:56.104Z,1024.09
2019-01-21T11:38:56.014Z,1024.13
2019-01-21T11:39:56.261Z,1024.11
2019-01-21T11:40:57.033Z,1024.06
2019-01-21T11:41:55.848Z,1024.09
2019-01-21T11:42:56.129Z,1024.04
2019-01-21T11:43:56.355Z,1024.04
2019-01-21T11:44:55.784Z,1024.01
2019-01-21T11:45:56.664Z,1024.01
2019-01-21T11:46:55.729Z,1023.99
2019-01-21T11:47:56.007Z,1023.99
2019-01-21T11:48:55.631Z,1023.97
2019-01-21T11:49:55.994Z,1023.94
2019-01-21T11:50:56.188Z,1023.96
2019-01-21T11:51:55.706Z,1023.97
2019-01-21T11:52:55.717Z,1023.92
2019-01-21T11:53:55.942Z,1023.93
2019-01-21T11:54:55.698Z,1023.94
2019-01-21T11:55:56.696Z,1023.92
2019-01-21T11:56:55.587Z,1023.87
2019-01-21T11:57:55.798Z,1023.86
2019-01-21T11:58:55.660Z,1023.87
2019-01-21T11:59:56.155Z,1023.86
2019-01-21T12:00:55.801Z,1023.82
2019-01-21T12:01:55.673Z,1023.78
2019-01-21T12:02:56.078Z,1023.8
2019-01-21T12:03:55.682Z,1023.81
2019-01-21T12:04:55.828Z,1023.78
2019-01-21T12:05:56.623Z,1023.74
2019-01-21T12:06:55.932Z,1023.76
2019-01-21T12:07:56.003Z,1023.76